createdAt,value
2017-07-02T00:00:03.816Z,0
2017-07-02T00:00:29.391Z,0
2017-07-02T00:00:54.963Z,0
2017-07-02T00:01:20.537Z,0
2017-07-02T00:01:46.119Z,0
2017-07-02T00:02:11.673Z,0
2017-07-02T00:02:37.261Z,0
2017-07-02T00:03:02.931Z,0
2017-07-02T00:03:28.479Z,0
2017-07-02T00:03:54.057Z,0
2017-07-02T00:04:19.660Z,0
2017-07-02T00:04:45.218Z,0
2017-07-02T00:05:10.769Z,0
2017-07-02T00:05:36.319Z,0
2017-07-02T00:06:01.960Z,0
2017-07-02T00:06:27.519Z,0
2017-07-02T00:06:53.078Z,0
2017-07-02T00:07:18.622Z,0
2017-07-02T00:07:44.181Z,0
2017-07-02T00:08:09.761Z,0
2017-07-02T00:08:35.344Z,0
2017-07-02T00:09:00.886Z,0
2017-07-02T00:09:26.517Z,0
2017-07-02T00:09:52.154Z,0
2017-07-02T00:10:17.707Z,0
2017-07-02T00:10:43.263Z,0
2017-07-02T00:11:08.816Z,0
2017-07-02T00:11:34.390Z,0
2017-07-02T00:11:59.955Z,0
2017-07-02T00:12:25.571Z,0
2017-07-02T00:12:51.133Z,0
2017-07-02T00:13:16.689Z,0
2017-07-02T00:13:42.290Z,0
2017-07-02T00:14:07.841Z,0
2017-07-02T00:14:33.433Z,0
2017-07-02T00:14:58.982Z,0
2017-07-02T00:15:24.532Z,0
2017-07-02T00:15:50.085Z,0
2017-07-02T00:16:15.664Z,0
2017-07-02T00:16:41.226Z,0
2017-07-02T00:17:06.807Z,0
2017-07-02T00:17:32.413Z,0
2017-07-02T00:17:57.977Z,0
2017-07-02T00:18:23.550Z,0
2017-07-02T00:18:49.117Z,0
2017-07-02T00:19:14.692Z,0
2017-07-02T00:19:40.282Z,0
2017-07-02T00:20:05.896Z,0
2017-07-02T00:20:31.454Z,0
2017-07-02T00:20:57.014Z,0
2017-07-02T00:21:22.584Z,0
2017-07-02T00:21:48.137Z,0
2017-07-02T00:22:13.702Z,0
2017-07-02T00:22:39.268Z,0
2017-07-02T00:23:04.833Z,0
2017-07-02T00:23:30.405Z,0
2017-07-02T00:23:56.033Z,0
2017-07-02T00:24:21.680Z,0
2017-07-02T00:24:47.239Z,0
2017-07-02T00:25:12.786Z,0
2017-07-02T00:25:38.359Z,0
2017-07-02T00:26:03.910Z,0
2017-07-02T00:26:29.471Z,0
2017-07-02T00:26:55.091Z,0
2017-07-02T00:27:20.657Z,0
2017-07-02T00:27:46.231Z,0
2017-07-02T00:28:11.838Z,0
2017-07-02T00:28:37.385Z,0
2017-07-02T00:29:02.953Z,0
2017-07-02T00:29:28.506Z,0
2017-07-02T00:29:54.055Z,0
2017-07-02T00:30:19.589Z,0
2017-07-02T00:30:45.158Z,0
2017-07-02T00:31:10.750Z,0
2017-07-02T00:31:36.300Z,0
2017-07-02T00:32:50.599Z,0
2017-07-02T00:33:16.246Z,0
2017-07-02T00:33:41.907Z,0
2017-07-02T00:34:07.482Z,0
2017-07-02T00:34:33.046Z,0
2017-07-02T00:34:58.690Z,0
2017-07-02T00:35:24.339Z,0
2017-07-02T00:35:49.890Z,0
2017-07-02T00:36:15.458Z,0
2017-07-02T00:36:41.016Z,0
2017-07-02T00:37:06.570Z,0
2017-07-02T00:37:32.147Z,0
2017-07-02T00:37:57.811Z,0
2017-07-02T00:38:23.375Z,0
2017-07-02T00:38:48.951Z,0
2017-07-02T00:39:14.499Z,0
2017-07-02T00:39:40.056Z,0
2017-07-02T00:40:05.620Z,0
2017-07-02T00:40:31.214Z,0
2017-07-02T00:40:56.770Z,0
2017-07-02T00:41:22.347Z,0
2017-07-02T00:41:47.901Z,0
2017-07-02T00:42:13.469Z,0
2017-07-02T00:42:39.023Z,0
2017-07-02T00:43:04.648Z,0
2017-07-02T00:43:30.207Z,0
2017-07-02T00:43:55.775Z,0
2017-07-02T00:44:21.452Z,0
2017-07-02T00:44:47.019Z,0
2017-07-02T00:45:12.584Z,0
2017-07-02T00:45:38.146Z,0
2017-07-02T00:46:03.698Z,0
2017-07-02T00:46:29.309Z,0
2017-07-02T00:46:54.887Z,0
2017-07-02T00:47:20.448Z,0
2017-07-02T00:47:45.997Z,0
2017-07-02T00:48:11.573Z,0
2017-07-02T00:48:37.121Z,0
2017-07-02T00:49:02.702Z,0
2017-07-02T00:49:28.352Z,0
2017-07-02T00:49:53.907Z,0
2017-07-02T00:50:19.492Z,0
2017-07-02T00:50:45.090Z,0
2017-07-02T00:51:10.730Z,0
2017-07-02T00:51:36.281Z,0
2017-07-02T00:52:01.844Z,0
2017-07-02T00:52:27.392Z,0
2017-07-02T00:52:52.963Z,0
2017-07-02T00:53:18.519Z,0
2017-07-02T00:53:44.185Z,0
2017-07-02T00:54:09.738Z,0
2017-07-02T00:54:35.301Z,0
2017-07-02T00:55:00.858Z,0
2017-07-02T00:55:26.405Z,0
2017-07-02T00:55:51.950Z,0
2017-07-02T00:56:17.529Z,0
2017-07-02T00:56:43.104Z,0
2017-07-02T00:57:08.677Z,0
2017-07-02T00:57:34.334Z,0
2017-07-02T00:57:59.909Z,0
2017-07-02T00:58:25.449Z,0
2017-07-02T00:58:51.022Z,0
2017-07-02T00:59:16.593Z,0
2017-07-02T00:59:42.184Z,0
2017-07-02T01:00:07.765Z,0
2017-07-02T01:00:33.311Z,0
2017-07-02T01:00:58.875Z,0
2017-07-02T01:01:24.556Z,0
2017-07-02T01:01:50.121Z,0
2017-07-02T01:02:15.676Z,0
2017-07-02T01:02:41.301Z,0
2017-07-02T01:03:06.867Z,0
2017-07-02T01:03:32.407Z,0
2017-07-02T01:03:57.989Z,0
2017-07-02T01:04:23.545Z,0
2017-07-02T01:04:49.106Z,0
2017-07-02T01:05:14.702Z,0
2017-07-02T01:05:40.231Z,0
2017-07-02T01:06:05.770Z,0
2017-07-02T01:06:31.363Z,0
2017-07-02T01:06:56.938Z,0
2017-07-02T01:07:22.546Z,0
2017-07-02T01:07:48.091Z,0
2017-07-02T01:08:13.675Z,0
2017-07-02T01:08:39.239Z,0
2017-07-02T01:09:04.971Z,0
2017-07-02T01:09:30.548Z,0
2017-07-02T01:09:56.125Z,0
2017-07-02T01:10:21.688Z,0
2017-07-02T01:10:47.296Z,0
2017-07-02T01:11:12.882Z,0
2017-07-02T01:11:38.442Z,0
2017-07-02T01:12:03.988Z,0
2017-07-02T01:12:29.556Z,0
2017-07-02T01:12:55.117Z,0
2017-07-02T01:13:20.673Z,0
2017-07-02T01:13:46.221Z,0
2017-07-02T01:14:11.864Z,0
2017-07-02T01:14:37.417Z,0
2017-07-02T01:15:02.983Z,0
2017-07-02T01:15:28.535Z,0
2017-07-02T01:15:54.097Z,0
2017-07-02T01:16:19.659Z,0
2017-07-02T01:16:45.214Z,0
2017-07-02T01:17:10.765Z,0
2017-07-02T01:17:36.333Z,0
2017-07-02T01:18:02.009Z,0
2017-07-02T01:18:27.694Z,0
2017-07-02T01:18:53.253Z,0
2017-07-02T01:19:18.840Z,0
2017-07-02T01:19:44.410Z,0
2017-07-02T01:20:09.985Z,0
2017-07-02T01:20:35.537Z,0
2017-07-02T01:21:01.128Z,0
2017-07-02T01:21:26.691Z,0
2017-07-02T01:21:52.252Z,0
2017-07-02T01:22:17.861Z,0
2017-07-02T01:22:43.456Z,0
2017-07-02T01:23:08.963Z,0
2017-07-02T01:23:34.551Z,0
2017-07-02T01:24:00.201Z,0
2017-07-02T01:24:25.765Z,0
2017-07-02T01:24:51.335Z,0
2017-07-02T01:25:16.896Z,0
2017-07-02T01:25:42.468Z,0
2017-07-02T01:26:08.039Z,0
2017-07-02T01:26:33.672Z,0
2017-07-02T01:26:59.232Z,0
2017-07-02T01:27:24.788Z,0
2017-07-02T01:27:50.363Z,0
2017-07-02T01:28:15.979Z,0
2017-07-02T01:28:41.545Z,0
2017-07-02T01:29:07.179Z,0
2017-07-02T01:29:32.726Z,0
2017-07-02T01:29:58.261Z,0
2017-07-02T01:30:23.908Z,0
2017-07-02T01:30:49.450Z,0
2017-07-02T01:31:15.022Z,0
2017-07-02T01:31:40.571Z,0
2017-07-02T01:32:06.129Z,0
2017-07-02T01:32:31.684Z,0
2017-07-02T01:32:57.238Z,0
2017-07-02T01:33:22.791Z,0
2017-07-02T01:33:48.366Z,0
2017-07-02T01:34:13.962Z,0
2017-07-02T01:34:39.539Z,0
2017-07-02T01:35:05.120Z,0
2017-07-02T01:35:30.796Z,0
2017-07-02T01:35:56.337Z,0
2017-07-02T01:36:21.913Z,0
2017-07-02T01:36:47.521Z,0
2017-07-02T01:37:13.078Z,0
2017-07-02T01:37:38.617Z,0
2017-07-02T01:38:04.186Z,0
2017-07-02T01:38:29.745Z,0
2017-07-02T01:38:55.317Z,0
2017-07-02T01:39:20.944Z,0
2017-07-02T01:39:46.492Z,0
2017-07-02T01:40:12.052Z,0
2017-07-02T01:40:37.600Z,0
2017-07-02T01:41:03.170Z,0
2017-07-02T01:41:28.728Z,0
2017-07-02T01:41:54.346Z,0
2017-07-02T01:42:19.862Z,0
2017-07-02T01:42:45.443Z,0
2017-07-02T01:43:11.014Z,0
2017-07-02T01:43:36.554Z,0
2017-07-02T01:44:02.117Z,0
2017-07-02T01:44:27.679Z,0
2017-07-02T01:44:53.263Z,0
2017-07-02T01:45:18.827Z,0
2017-07-02T01:45:44.392Z,0
2017-07-02T01:46:09.952Z,0
2017-07-02T01:46:35.517Z,0
2017-07-02T01:47:01.091Z,0
2017-07-02T01:47:26.632Z,0
2017-07-02T01:47:52.262Z,0
2017-07-02T01:48:17.847Z,0
2017-07-02T01:48:43.418Z,0
2017-07-02T01:49:08.997Z,0
2017-07-02T01:49:34.558Z,0
2017-07-02T01:50:00.116Z,0
2017-07-02T01:50:25.760Z,0
2017-07-02T01:50:51.378Z,0
2017-07-02T01:51:16.947Z,0
2017-07-02T01:51:42.521Z,0
2017-07-02T01:52:08.212Z,0
2017-07-02T01:52:33.829Z,0
2017-07-02T01:52:59.393Z,0
2017-07-02T01:53:24.943Z,0
2017-07-02T01:53:50.579Z,0
2017-07-02T01:54:16.132Z,0
2017-07-02T01:54:41.708Z,0
2017-07-02T01:55:07.291Z,0
2017-07-02T01:55:32.846Z,0
2017-07-02T01:55:58.432Z,0
2017-07-02T01:56:23.978Z,0
2017-07-02T01:56:49.538Z,0
2017-07-02T01:57:15.100Z,0
2017-07-02T01:57:40.669Z,0
2017-07-02T01:58:06.242Z,0
2017-07-02T01:58:31.818Z,0
2017-07-02T01:58:57.431Z,0
2017-07-02T01:59:23.129Z,0
2017-07-02T01:59:48.696Z,0
2017-07-02T02:00:14.250Z,0
2017-07-02T02:00:39.899Z,0
2017-07-02T02:01:05.447Z,0
2017-07-02T02:01:31.017Z,0
2017-07-02T02:01:56.580Z,0
2017-07-02T02:02:22.137Z,0
2017-07-02T02:02:47.706Z,0
2017-07-02T02:03:13.300Z,0
2017-07-02T02:03:38.868Z,0
2017-07-02T02:04:04.486Z,0
2017-07-02T02:04:30.061Z,0
2017-07-02T02:04:55.612Z,0
2017-07-02T02:05:21.164Z,0
2017-07-02T02:05:46.809Z,0
2017-07-02T02:06:12.364Z,0
2017-07-02T02:06:37.961Z,0
2017-07-02T02:07:03.648Z,0
2017-07-02T02:07:29.241Z,0
2017-07-02T02:07:54.848Z,0
2017-07-02T02:08:20.424Z,0
2017-07-02T02:08:45.992Z,0
2017-07-02T02:09:11.550Z,0
2017-07-02T02:09:37.112Z,0
2017-07-02T02:10:02.687Z,0
2017-07-02T02:10:28.241Z,0
2017-07-02T02:10:53.809Z,0
2017-07-02T02:11:19.365Z,0
2017-07-02T02:11:44.920Z,0
2017-07-02T02:12:10.514Z,0
2017-07-02T02:12:36.105Z,0
2017-07-02T02:13:01.661Z,0
2017-07-02T02:13:27.232Z,0
2017-07-02T02:13:52.801Z,0
2017-07-02T02:14:18.367Z,0
2017-07-02T02:14:43.943Z,0
2017-07-02T02:15:09.508Z,0
2017-07-02T02:15:35.055Z,0
2017-07-02T02:16:00.632Z,0
2017-07-02T02:16:26.210Z,0
2017-07-02T02:16:51.759Z,0
2017-07-02T02:17:17.352Z,0
2017-07-02T02:17:42.920Z,0
2017-07-02T02:18:08.479Z,0
2017-07-02T02:18:34.051Z,0
2017-07-02T02:18:59.730Z,0
2017-07-02T02:19:25.304Z,0
2017-07-02T02:19:50.877Z,0
2017-07-02T02:20:16.441Z,0
2017-07-02T02:20:42.007Z,0
2017-07-02T02:21:07.578Z,0
2017-07-02T02:21:33.200Z,0
2017-07-02T02:21:58.754Z,0
2017-07-02T02:22:24.323Z,0
2017-07-02T02:22:49.884Z,0
2017-07-02T02:23:15.428Z,0
2017-07-02T02:23:40.990Z,0
2017-07-02T02:24:06.548Z,0
2017-07-02T02:24:32.121Z,0
2017-07-02T02:24:57.675Z,0
2017-07-02T02:25:23.232Z,0
2017-07-02T02:25:48.782Z,0
2017-07-02T02:26:14.438Z,0
2017-07-02T02:26:40.097Z,0
2017-07-02T02:27:05.723Z,0
2017-07-02T02:27:31.301Z,0
2017-07-02T02:27:56.904Z,0
2017-07-02T02:28:22.457Z,0
2017-07-02T02:28:47.999Z,0
2017-07-02T02:29:13.548Z,0
2017-07-02T02:29:39.132Z,0
2017-07-02T02:30:04.690Z,0
2017-07-02T02:30:30.258Z,0
2017-07-02T02:30:55.814Z,0
2017-07-02T02:31:21.375Z,0
2017-07-02T02:31:46.990Z,0
2017-07-02T02:32:12.544Z,0
2017-07-02T02:32:38.125Z,0
2017-07-02T02:33:03.731Z,0
2017-07-02T02:33:29.300Z,0
2017-07-02T02:33:54.856Z,0
2017-07-02T02:34:20.398Z,0
2017-07-02T02:34:46.065Z,0
2017-07-02T02:35:11.618Z,0
2017-07-02T02:35:37.193Z,0
2017-07-02T02:36:02.762Z,0
2017-07-02T02:36:28.338Z,0
2017-07-02T02:36:53.892Z,0
2017-07-02T02:37:19.524Z,0
2017-07-02T02:37:45.080Z,0
2017-07-02T02:38:10.634Z,0
2017-07-02T02:38:36.203Z,0
2017-07-02T02:39:01.779Z,0
2017-07-02T02:39:27.342Z,0
2017-07-02T02:39:52.974Z,0
2017-07-02T02:40:18.535Z,0
2017-07-02T02:40:44.098Z,0
2017-07-02T02:41:09.727Z,0
2017-07-02T02:41:35.290Z,0
2017-07-02T02:42:00.841Z,0
2017-07-02T02:42:26.491Z,0
2017-07-02T02:42:52.056Z,0
2017-07-02T02:43:17.619Z,0
2017-07-02T02:43:43.198Z,0
2017-07-02T02:44:08.757Z,0
2017-07-02T02:45:28.961Z,0
2017-07-02T02:45:54.542Z,0
2017-07-02T02:46:20.094Z,0
2017-07-02T02:46:45.665Z,0
2017-07-02T02:47:11.259Z,0
2017-07-02T02:47:36.813Z,0
2017-07-02T02:48:02.396Z,0
2017-07-02T02:48:28.015Z,0
2017-07-02T02:48:53.567Z,0
2017-07-02T02:49:19.156Z,0
2017-07-02T02:49:44.785Z,0
2017-07-02T02:50:10.338Z,0
2017-07-02T02:50:35.895Z,0
2017-07-02T02:51:01.549Z,0
2017-07-02T02:51:27.110Z,0
2017-07-02T02:51:52.711Z,0
2017-07-02T02:52:18.347Z,0
2017-07-02T02:52:43.910Z,0
2017-07-02T02:53:09.476Z,0
2017-07-02T02:53:35.027Z,0
2017-07-02T02:54:00.596Z,0
2017-07-02T02:54:26.146Z,0
2017-07-02T02:54:51.711Z,0
2017-07-02T02:55:17.286Z,0
2017-07-02T02:55:42.857Z,0
2017-07-02T02:56:08.505Z,0
2017-07-02T02:56:34.085Z,0
2017-07-02T02:56:59.635Z,0
2017-07-02T02:57:25.218Z,0
2017-07-02T02:57:50.774Z,0
2017-07-02T02:58:16.330Z,0
2017-07-02T02:58:41.886Z,0
2017-07-02T02:59:07.435Z,0
2017-07-02T02:59:32.999Z,0
2017-07-02T02:59:58.673Z,0
2017-07-02T03:00:24.232Z,0
2017-07-02T03:00:49.788Z,0
2017-07-02T03:01:15.365Z,0
2017-07-02T03:01:40.940Z,0
2017-07-02T03:02:06.509Z,0
2017-07-02T03:02:32.080Z,0
2017-07-02T03:02:57.657Z,0
2017-07-02T03:03:23.253Z,0
2017-07-02T03:03:48.856Z,0
2017-07-02T03:04:14.502Z,0
2017-07-02T03:04:40.054Z,0
2017-07-02T03:05:05.606Z,0
2017-07-02T03:05:31.184Z,0
2017-07-02T03:05:56.741Z,0
2017-07-02T03:06:22.319Z,0
2017-07-02T03:06:47.872Z,0
2017-07-02T03:07:13.430Z,0
2017-07-02T03:07:38.983Z,0
2017-07-02T03:08:04.667Z,0
2017-07-02T03:08:30.263Z,0
2017-07-02T03:08:55.812Z,0
2017-07-02T03:09:21.369Z,0
2017-07-02T03:09:46.928Z,0
2017-07-02T03:10:12.493Z,0
2017-07-02T03:10:38.102Z,0
2017-07-02T03:11:03.669Z,0
2017-07-02T03:11:29.250Z,0
2017-07-02T03:11:54.860Z,0
2017-07-02T03:12:20.420Z,0
2017-07-02T03:12:45.960Z,0
2017-07-02T03:13:11.509Z,0
2017-07-02T03:13:37.124Z,0
2017-07-02T03:14:02.662Z,0
2017-07-02T03:14:28.274Z,0
2017-07-02T03:14:53.836Z,0
2017-07-02T03:15:19.411Z,0
2017-07-02T03:15:45.020Z,4
2017-07-02T03:16:10.642Z,4
2017-07-02T03:16:36.243Z,4
2017-07-02T03:17:01.797Z,0
2017-07-02T03:17:27.373Z,0
2017-07-02T03:17:52.926Z,4
2017-07-02T03:18:18.480Z,4
2017-07-02T03:18:44.025Z,4
2017-07-02T03:19:09.586Z,0
2017-07-02T03:19:35.221Z,4
2017-07-02T03:20:00.796Z,4
2017-07-02T03:20:26.361Z,4
2017-07-02T03:20:51.965Z,0
2017-07-02T03:21:17.588Z,4
2017-07-02T03:21:43.149Z,4
2017-07-02T03:22:08.711Z,4
2017-07-02T03:22:34.314Z,4
2017-07-02T03:22:59.867Z,4
2017-07-02T03:23:25.428Z,4
2017-07-02T03:23:51.008Z,4
2017-07-02T03:24:16.574Z,4
2017-07-02T03:24:42.140Z,4
2017-07-02T03:25:07.802Z,8
2017-07-02T03:25:33.366Z,4
2017-07-02T03:25:58.934Z,8
2017-07-02T03:26:24.583Z,8
2017-07-02T03:26:50.125Z,4
2017-07-02T03:27:15.721Z,8
2017-07-02T03:27:41.272Z,8
2017-07-02T03:28:06.881Z,8
2017-07-02T03:28:32.430Z,4
2017-07-02T03:28:57.982Z,4
2017-07-02T03:29:23.539Z,4
2017-07-02T03:29:49.148Z,4
2017-07-02T03:30:14.711Z,4
2017-07-02T03:30:40.299Z,4
2017-07-02T03:31:05.861Z,8
2017-07-02T03:31:31.415Z,8
2017-07-02T03:31:56.969Z,4
2017-07-02T03:32:22.530Z,8
2017-07-02T03:32:48.176Z,8
2017-07-02T03:33:13.736Z,8
2017-07-02T03:33:39.309Z,8
2017-07-02T03:34:04.892Z,8
2017-07-02T03:34:30.493Z,8
2017-07-02T03:34:56.046Z,8
2017-07-02T03:35:21.613Z,8
2017-07-02T03:35:47.260Z,8
2017-07-02T03:36:12.865Z,8
2017-07-02T03:36:38.418Z,8
2017-07-02T03:37:03.974Z,8
2017-07-02T03:37:29.536Z,8
2017-07-02T03:37:55.069Z,8
2017-07-02T03:38:20.624Z,8
2017-07-02T03:38:46.157Z,8
2017-07-02T03:39:11.776Z,8
2017-07-02T03:39:37.322Z,8
2017-07-02T03:40:02.887Z,8
2017-07-02T03:40:28.441Z,8
2017-07-02T03:40:54.061Z,8
2017-07-02T03:41:19.621Z,8
2017-07-02T03:41:45.267Z,12
2017-07-02T03:42:10.939Z,8
2017-07-02T03:42:36.515Z,8
2017-07-02T03:43:02.073Z,12
2017-07-02T03:43:27.646Z,8
2017-07-02T03:43:53.292Z,12
2017-07-02T03:44:18.851Z,12
2017-07-02T03:44:44.468Z,12
2017-07-02T03:45:10.090Z,12
2017-07-02T03:45:35.644Z,12
2017-07-02T03:46:01.204Z,12
2017-07-02T03:46:26.835Z,12
2017-07-02T03:46:52.388Z,12
2017-07-02T03:47:17.942Z,12
2017-07-02T03:47:43.525Z,12
2017-07-02T03:48:09.079Z,8
2017-07-02T03:48:34.641Z,12
2017-07-02T03:49:00.217Z,12
2017-07-02T03:49:25.768Z,12
2017-07-02T03:49:51.373Z,12
2017-07-02T03:50:16.948Z,12
2017-07-02T03:50:42.515Z,12
2017-07-02T03:51:08.146Z,16
2017-07-02T03:51:33.691Z,16
2017-07-02T03:51:59.251Z,12
2017-07-02T03:52:24.818Z,12
2017-07-02T03:52:50.391Z,12
2017-07-02T03:53:15.968Z,12
2017-07-02T03:53:41.523Z,12
2017-07-02T03:54:07.123Z,16
2017-07-02T03:54:32.694Z,16
2017-07-02T03:54:58.273Z,12
2017-07-02T03:55:23.851Z,16
2017-07-02T03:55:49.425Z,12
2017-07-02T03:56:14.986Z,12
2017-07-02T03:56:40.630Z,12
2017-07-02T03:57:06.202Z,12
2017-07-02T03:57:31.796Z,12
2017-07-02T03:57:57.367Z,16
2017-07-02T03:58:22.931Z,16
2017-07-02T03:58:48.490Z,16
2017-07-02T03:59:14.066Z,16
2017-07-02T03:59:39.641Z,16
2017-07-02T04:00:05.210Z,16
2017-07-02T04:00:30.759Z,16
2017-07-02T04:00:56.406Z,12
2017-07-02T04:01:21.962Z,16
2017-07-02T04:01:47.532Z,16
2017-07-02T04:02:13.083Z,12
2017-07-02T04:02:38.632Z,16
2017-07-02T04:03:04.192Z,16
2017-07-02T04:03:29.848Z,16
2017-07-02T04:03:55.397Z,16
2017-07-02T04:04:20.971Z,16
2017-07-02T04:04:46.540Z,16
2017-07-02T04:05:12.092Z,16
2017-07-02T04:05:37.669Z,20
2017-07-02T04:06:03.522Z,16
2017-07-02T04:06:29.143Z,16
2017-07-02T04:06:54.748Z,20
2017-07-02T04:07:20.305Z,20
2017-07-02T04:07:45.879Z,20
2017-07-02T04:08:11.462Z,16
2017-07-02T04:08:37.027Z,20
2017-07-02T04:09:02.684Z,20
2017-07-02T04:09:28.225Z,20
2017-07-02T04:09:53.790Z,20
2017-07-02T04:10:19.372Z,20
2017-07-02T04:11:28.550Z,20
2017-07-02T04:11:54.129Z,20
2017-07-02T04:12:19.799Z,20
2017-07-02T04:12:45.374Z,20
2017-07-02T04:13:10.918Z,20
2017-07-02T04:13:36.496Z,20
2017-07-02T04:14:02.058Z,20
2017-07-02T04:14:27.619Z,20
2017-07-02T04:14:53.351Z,20
2017-07-02T04:15:18.926Z,20
2017-07-02T04:15:44.473Z,24
2017-07-02T04:16:10.059Z,20
2017-07-02T04:16:35.599Z,20
2017-07-02T04:17:01.170Z,24
2017-07-02T04:17:26.815Z,20
2017-07-02T04:17:52.400Z,24
2017-07-02T04:18:17.963Z,24
2017-07-02T04:18:43.524Z,20
2017-07-02T04:19:09.088Z,20
2017-07-02T04:19:34.655Z,24
2017-07-02T04:20:00.258Z,24
2017-07-02T04:20:25.820Z,24
2017-07-02T04:20:51.390Z,24
2017-07-02T04:21:16.972Z,24
2017-07-02T04:21:42.585Z,24
2017-07-02T04:22:08.166Z,24
2017-07-02T04:22:33.734Z,24
2017-07-02T04:22:59.312Z,24
2017-07-02T04:23:24.881Z,24
2017-07-02T04:23:50.447Z,24
2017-07-02T04:24:16.001Z,24
2017-07-02T04:24:41.586Z,24
2017-07-02T04:25:07.155Z,20
2017-07-02T04:25:32.812Z,24
2017-07-02T04:25:58.365Z,24
2017-07-02T04:26:23.918Z,24
2017-07-02T04:26:49.519Z,24
2017-07-02T04:27:15.114Z,28
2017-07-02T04:27:40.666Z,28
2017-07-02T04:28:06.256Z,28
2017-07-02T04:28:31.809Z,28
2017-07-02T04:28:57.376Z,24
2017-07-02T04:29:22.977Z,28
2017-07-02T04:29:48.553Z,28
2017-07-02T04:30:14.100Z,28
2017-07-02T04:30:39.649Z,32
2017-07-02T04:31:05.218Z,28
2017-07-02T04:31:30.780Z,32
2017-07-02T04:31:56.339Z,32
2017-07-02T04:32:21.999Z,32
2017-07-02T04:32:47.533Z,36
2017-07-02T04:33:13.091Z,36
2017-07-02T04:33:38.690Z,36
2017-07-02T04:34:04.287Z,32
2017-07-02T04:34:29.817Z,32
2017-07-02T04:34:55.384Z,28
2017-07-02T04:35:20.929Z,28
2017-07-02T04:35:46.561Z,28
2017-07-02T04:36:12.121Z,28
2017-07-02T04:36:37.692Z,28
2017-07-02T04:37:03.261Z,28
2017-07-02T04:37:28.907Z,32
2017-07-02T04:37:54.466Z,32
2017-07-02T04:38:20.065Z,32
2017-07-02T04:38:45.719Z,32
2017-07-02T04:39:11.266Z,32
2017-07-02T04:39:36.848Z,32
2017-07-02T04:40:02.390Z,28
2017-07-02T04:40:27.952Z,28
2017-07-02T04:40:53.537Z,32
2017-07-02T04:42:12.942Z,32
2017-07-02T04:42:38.518Z,28
2017-07-02T04:43:04.208Z,28
2017-07-02T04:43:29.768Z,28
2017-07-02T04:43:55.317Z,28
2017-07-02T04:44:20.937Z,28
2017-07-02T04:44:46.499Z,28
2017-07-02T04:45:12.071Z,28
2017-07-02T04:45:37.638Z,32
2017-07-02T04:46:03.200Z,32
2017-07-02T04:46:28.776Z,32
2017-07-02T04:46:54.375Z,32
2017-07-02T04:47:19.942Z,32
2017-07-02T04:47:45.521Z,32
2017-07-02T04:48:11.149Z,32
2017-07-02T04:48:36.706Z,28
2017-07-02T04:49:02.248Z,28
2017-07-02T04:49:27.822Z,28
2017-07-02T04:49:53.467Z,24
2017-07-02T04:50:19.032Z,24
2017-07-02T04:50:44.620Z,20
2017-07-02T04:51:10.183Z,20
2017-07-02T04:51:35.748Z,20
2017-07-02T04:52:01.322Z,16
2017-07-02T04:52:26.868Z,16
2017-07-02T04:52:52.453Z,20
2017-07-02T04:53:18.017Z,20
2017-07-02T04:53:43.588Z,20
2017-07-02T04:54:09.147Z,16
2017-07-02T04:54:34.700Z,20
2017-07-02T04:55:00.252Z,20
2017-07-02T04:55:25.835Z,20
2017-07-02T04:55:51.410Z,20
2017-07-02T04:56:16.962Z,20
2017-07-02T04:56:42.518Z,20
2017-07-02T04:57:08.083Z,16
2017-07-02T04:57:33.630Z,20
2017-07-02T04:57:59.169Z,16
2017-07-02T04:58:24.720Z,16
2017-07-02T04:58:50.311Z,16
2017-07-02T04:59:15.871Z,12
2017-07-02T04:59:41.436Z,16
2017-07-02T05:00:06.988Z,16
2017-07-02T05:00:32.546Z,16
2017-07-02T05:00:58.100Z,16
2017-07-02T05:01:23.649Z,12
2017-07-02T05:01:49.210Z,16
2017-07-02T05:02:14.792Z,16
2017-07-02T05:02:40.346Z,12
2017-07-02T05:03:05.957Z,12
2017-07-02T05:03:31.529Z,12
2017-07-02T05:03:57.080Z,12
2017-07-02T05:04:22.635Z,12
2017-07-02T05:04:48.198Z,12
2017-07-02T05:05:13.756Z,8
2017-07-02T05:05:39.385Z,12
2017-07-02T05:06:05.028Z,8
2017-07-02T05:06:30.594Z,8
2017-07-02T05:06:56.139Z,8
2017-07-02T05:07:21.734Z,4
2017-07-02T05:07:47.295Z,8
2017-07-02T05:08:12.848Z,8
2017-07-02T05:08:38.433Z,8
2017-07-02T05:09:04.004Z,12
2017-07-02T05:09:29.611Z,12
2017-07-02T05:09:55.238Z,12
2017-07-02T05:10:20.792Z,8
2017-07-02T05:10:46.335Z,8
2017-07-02T05:11:11.891Z,12
2017-07-02T05:11:37.431Z,12
2017-07-02T05:12:03.037Z,12
2017-07-02T05:12:28.599Z,8
2017-07-02T05:12:54.157Z,8
2017-07-02T05:13:19.723Z,8
2017-07-02T05:13:45.298Z,8
2017-07-02T05:14:10.868Z,12
2017-07-02T05:14:36.451Z,8
2017-07-02T05:15:02.129Z,12
2017-07-02T05:15:27.677Z,12
2017-07-02T05:15:53.273Z,12
2017-07-02T05:16:18.807Z,12
2017-07-02T05:16:44.449Z,12
2017-07-02T05:17:10.022Z,12
2017-07-02T05:17:35.629Z,8
2017-07-02T05:18:01.191Z,8
2017-07-02T05:18:26.750Z,8
2017-07-02T05:18:52.302Z,12
2017-07-02T05:19:17.949Z,8
2017-07-02T05:19:43.515Z,8
2017-07-02T05:20:09.099Z,12
2017-07-02T05:20:34.656Z,8
2017-07-02T05:21:00.220Z,12
2017-07-02T05:21:25.786Z,12
2017-07-02T05:21:51.352Z,12
2017-07-02T05:22:16.912Z,16
2017-07-02T05:22:42.491Z,12
2017-07-02T05:23:08.085Z,16
2017-07-02T05:23:33.650Z,16
2017-07-02T05:23:59.225Z,16
2017-07-02T05:24:24.810Z,16
2017-07-02T05:24:50.376Z,20
2017-07-02T05:25:15.903Z,16
2017-07-02T05:25:41.478Z,16
2017-07-02T05:26:07.052Z,16
2017-07-02T05:26:32.612Z,16
2017-07-02T05:26:58.172Z,16
2017-07-02T05:27:23.752Z,16
2017-07-02T05:27:49.387Z,16
2017-07-02T05:28:14.955Z,16
2017-07-02T05:28:40.523Z,16
2017-07-02T05:29:06.147Z,16
2017-07-02T05:29:31.710Z,16
2017-07-02T05:29:57.332Z,16
2017-07-02T05:30:22.885Z,16
2017-07-02T05:30:48.534Z,16
2017-07-02T05:31:14.120Z,16
2017-07-02T05:31:39.682Z,20
2017-07-02T05:32:05.286Z,20
2017-07-02T05:32:30.847Z,16
2017-07-02T05:32:56.421Z,16
2017-07-02T05:33:22.024Z,16
2017-07-02T05:33:47.622Z,16
2017-07-02T05:34:13.134Z,16
2017-07-02T05:35:27.347Z,12
2017-07-02T05:35:52.897Z,16
2017-07-02T05:36:18.513Z,16
2017-07-02T05:36:44.055Z,16
2017-07-02T05:37:09.617Z,16
2017-07-02T05:37:35.187Z,16
2017-07-02T05:38:00.788Z,16
2017-07-02T05:38:26.428Z,16
2017-07-02T05:38:52.090Z,16
2017-07-02T05:39:17.818Z,16
2017-07-02T05:39:43.376Z,20
2017-07-02T05:40:08.947Z,16
2017-07-02T05:40:34.527Z,16
2017-07-02T05:41:00.112Z,16
2017-07-02T05:41:25.655Z,16
2017-07-02T05:41:51.242Z,20
2017-07-02T05:42:16.803Z,16
2017-07-02T05:42:42.370Z,16
2017-07-02T05:43:07.932Z,16
2017-07-02T05:43:33.485Z,16
2017-07-02T05:43:59.047Z,16
2017-07-02T05:44:24.670Z,12
2017-07-02T05:44:50.236Z,16
2017-07-02T05:45:15.786Z,16
2017-07-02T05:45:41.423Z,16
2017-07-02T05:46:07.010Z,16
2017-07-02T05:46:32.530Z,16
2017-07-02T05:46:58.082Z,16
2017-07-02T05:47:23.659Z,16
2017-07-02T05:47:49.173Z,16
2017-07-02T05:48:14.733Z,16
2017-07-02T05:48:40.285Z,12
2017-07-02T05:49:05.885Z,16
2017-07-02T05:49:31.443Z,16
2017-07-02T05:49:56.994Z,16
2017-07-02T05:50:22.612Z,16
2017-07-02T05:50:48.170Z,16
2017-07-02T05:51:13.766Z,16
2017-07-02T05:51:39.334Z,16
2017-07-02T05:52:05.033Z,16
2017-07-02T05:52:30.579Z,16
2017-07-02T05:52:56.137Z,16
2017-07-02T05:53:21.709Z,20
2017-07-02T05:53:47.281Z,20
2017-07-02T05:54:12.837Z,16
2017-07-02T05:54:38.429Z,20
2017-07-02T05:55:03.991Z,20
2017-07-02T05:55:29.554Z,20
2017-07-02T05:55:55.196Z,20
2017-07-02T05:56:20.780Z,20
2017-07-02T05:56:46.365Z,40
2017-07-02T05:58:05.721Z,56
2017-07-02T05:58:31.309Z,56
2017-07-02T05:58:56.889Z,60
2017-07-02T06:01:04.256Z,60
2017-07-02T06:01:29.806Z,60
2017-07-02T06:01:55.362Z,60
2017-07-02T06:02:20.923Z,60
2017-07-02T06:02:46.486Z,60
2017-07-02T06:03:12.151Z,60
2017-07-02T06:03:37.719Z,56
2017-07-02T06:04:03.285Z,60
2017-07-02T06:04:28.845Z,56
2017-07-02T06:04:54.440Z,56
2017-07-02T06:05:20.011Z,56
2017-07-02T06:05:45.698Z,56
2017-07-02T06:06:11.323Z,52
2017-07-02T06:06:36.900Z,52
2017-07-02T06:07:02.446Z,56
2017-07-02T06:07:28.017Z,52
2017-07-02T06:07:53.590Z,52
2017-07-02T06:08:19.139Z,52
2017-07-02T06:08:44.741Z,52
2017-07-02T06:09:10.309Z,52
2017-07-02T06:09:35.879Z,48
2017-07-02T06:10:01.459Z,48
2017-07-02T06:10:27.024Z,48
2017-07-02T06:10:52.623Z,48
2017-07-02T06:11:18.306Z,48
2017-07-02T06:11:43.882Z,48
2017-07-02T06:12:09.448Z,48
2017-07-02T06:12:35.014Z,48
2017-07-02T06:13:00.698Z,48
2017-07-02T06:13:26.246Z,48
2017-07-02T06:13:51.790Z,48
2017-07-02T06:14:17.362Z,48
2017-07-02T06:14:42.906Z,48
2017-07-02T06:15:08.559Z,48
2017-07-02T06:15:34.183Z,44
2017-07-02T06:15:59.724Z,44
2017-07-02T06:16:25.295Z,44
2017-07-02T06:16:50.892Z,44
2017-07-02T06:17:16.432Z,44
2017-07-02T06:17:41.982Z,44
2017-07-02T06:18:07.547Z,48
2017-07-02T06:18:33.119Z,44
2017-07-02T06:18:58.687Z,48
2017-07-02T06:19:24.296Z,44